sensor_id;sensor_type;location;lat;lon;timestamp;P1;durP1;ratioP1;P2;durP2;ratioP2
26574;SDS011;67165;50.256;10.978;2024-01-15T00:00:20;78.97;;;29.50;;
26574;SDS011;67165;50.256;10.978;2024-01-15T00:02:46;86.18;;;31.38;;
26574;SDS011;67165;50.256;10.978;2024-01-15T00:05:12;89.40;;;31.02;;
26574;SDS011;67165;50.256;10.978;2024-01-15T00:07:38;87.65;;;31.70;;
26574;SDS011;67165;50.256;10.978;2024-01-15T00:10:04;88.75;;;31.65;;
26574;SDS011;67165;50.256;10.978;2024-01-15T00:12:30;86.72;;;30.60;;
26574;SDS011;67165;50.256;10.978;2024-01-15T00:14:56;95.07;;;33.35;;
26574;SDS011;67165;50.256;10.978;2024-01-15T00:17:22;90.20;;;32.92;;
26574;SDS011;67165;50.256;10.978;2024-01-15T00:19:48;97.28;;;33.97;;
26574;SDS011;67165;50.256;10.978;2024-01-15T00:22:13;95.32;;;33.55;;
26574;SDS011;67165;50.256;10.978;2024-01-15T00:24:39;96.43;;;33.70;;
26574;SDS011;67165;50.256;10.978;2024-01-15T00:27:05;93.72;;;34.42;;
26574;SDS011;67165;50.256;10.978;2024-01-15T00:29:30;100.70;;;34.72;;
26574;SDS011;67165;50.256;10.978;2024-01-15T00:31:56;99.82;;;32.88;;
26574;SDS011;67165;50.256;10.978;2024-01-15T00:34:22;102.72;;;35.90;;
26574;SDS011;67165;50.256;10.978;2024-01-15T00:36:47;99.38;;;34.83;;
26574;SDS011;67165;50.256;10.978;2024-01-15T00:39:13;102.55;;;34.17;;
26574;SDS011;67165;50.256;10.978;2024-01-15T00:41:39;99.15;;;33.63;;
26574;SDS011;67165;50.256;10.978;2024-01-15T00:44:05;98.93;;;33.63;;
26574;SDS011;67165;50.256;10.978;2024-01-15T00:46:30;97.38;;;34.08;;
26574;SDS011;67165;50.256;10.978;2024-01-15T00:48:56;100.28;;;34.42;;
26574;SDS011;67165;50.256;10.978;2024-01-15T00:51:22;97.40;;;34.20;;
26574;SDS011;67165;50.256;10.978;2024-01-15T00:53:48;105.47;;;35.05;;
26574;SDS011;67165;50.256;10.978;2024-01-15T00:56:13;99.80;;;35.42;;
26574;SDS011;67165;50.256;10.978;2024-01-15T00:58:39;99.30;;;34.13;;
26574;SDS011;67165;50.256;10.978;2024-01-15T01:01:05;98.50;;;33.40;;
26574;SDS011;67165;50.256;10.978;2024-01-15T01:03:31;89.05;;;31.52;;
26574;SDS011;67165;50.256;10.978;2024-01-15T01:05:56;96.55;;;32.60;;
26574;SDS011;67165;50.256;10.978;2024-01-15T01:08:22;93.40;;;33.72;;
26574;SDS011;67165;50.256;10.978;2024-01-15T01:10:48;95.68;;;32.90;;
26574;SDS011;67165;50.256;10.978;2024-01-15T01:13:13;91.32;;;31.00;;
26574;SDS011;67165;50.256;10.978;2024-01-15T01:15:39;88.15;;;32.38;;
26574;SDS011;67165;50.256;10.978;2024-01-15T01:18:05;86.97;;;29.73;;
26574;SDS011;67165;50.256;10.978;2024-01-15T01:20:31;92.05;;;31.45;;
26574;SDS011;67165;50.256;10.978;2024-01-15T01:22:56;83.10;;;29.35;;
26574;SDS011;67165;50.256;10.978;2024-01-15T01:25:22;88.38;;;30.63;;
26574;SDS011;67165;50.256;10.978;2024-01-15T01:27:48;81.78;;;28.88;;
26574;SDS011;67165;50.256;10.978;2024-01-15T01:30:13;83.50;;;28.65;;
26574;SDS011;67165;50.256;10.978;2024-01-15T01:32:39;76.25;;;28.15;;
26574;SDS011;67165;50.256;10.978;2024-01-15T01:35:05;82.97;;;27.92;;
26574;SDS011;67165;50.256;10.978;2024-01-15T01:37:31;76.97;;;27.23;;
26574;SDS011;67165;50.256;10.978;2024-01-15T01:39:59;72.45;;;26.85;;
26574;SDS011;67165;50.256;10.978;2024-01-15T01:42:24;78.72;;;26.90;;
26574;SDS011;67165;50.256;10.978;2024-01-15T01:44:51;74.03;;;26.60;;
26574;SDS011;67165;50.256;10.978;2024-01-15T01:47:17;70.80;;;26.00;;
26574;SDS011;67165;50.256;10.978;2024-01-15T01:49:43;70.90;;;25.13;;
26574;SDS011;67165;50.256;10.978;2024-01-15T01:52:09;73.40;;;25.88;;
26574;SDS011;67165;50.256;10.978;2024-01-15T01:54:35;69.45;;;23.95;;
26574;SDS011;67165;50.256;10.978;2024-01-15T01:57:02;62.10;;;24.00;;
26574;SDS011;67165;50.256;10.978;2024-01-15T01:59:30;72.00;;;24.80;;
26574;SDS011;67165;50.256;10.978;2024-01-15T02:01:56;65.47;;;24.13;;
26574;SDS011;67165;50.256;10.978;2024-01-15T02:04:24;66.28;;;23.50;;
26574;SDS011;67165;50.256;10.978;2024-01-15T02:06:50;65.72;;;23.98;;
26574;SDS011;67165;50.256;10.978;2024-01-15T02:09:19;68.22;;;24.30;;
26574;SDS011;67165;50.256;10.978;2024-01-15T02:11:48;68.88;;;24.20;;
26574;SDS011;67165;50.256;10.978;2024-01-15T02:14:14;68.95;;;24.92;;
26574;SDS011;67165;50.256;10.978;2024-01-15T02:16:40;66.15;;;24.40;;
26574;SDS011;67165;50.256;10.978;2024-01-15T02:19:06;70.57;;;25.85;;
26574;SDS011;67165;50.256;10.978;2024-01-15T02:21:32;74.80;;;26.98;;
26574;SDS011;67165;50.256;10.978;2024-01-15T02:23:58;71.88;;;25.85;;
26574;SDS011;67165;50.256;10.978;2024-01-15T02:26:24;75.93;;;25.92;;
26574;SDS011;67165;50.256;10.978;2024-01-15T02:28:51;70.20;;;24.65;;
26574;SDS011;67165;50.256;10.978;2024-01-15T02:31:17;75.40;;;28.02;;
26574;SDS011;67165;50.256;10.978;2024-01-15T02:33:43;74.32;;;26.85;;
26574;SDS011;67165;50.256;10.978;2024-01-15T02:36:11;73.15;;;26.13;;
26574;SDS011;67165;50.256;10.978;2024-01-15T02:38:37;68.22;;;25.92;;
26574;SDS011;67165;50.256;10.978;2024-01-15T02:41:03;68.45;;;24.63;;
26574;SDS011;67165;50.256;10.978;2024-01-15T02:43:29;69.55;;;26.08;;
26574;SDS011;67165;50.256;10.978;2024-01-15T02:45:54;71.03;;;25.75;;
26574;SDS011;67165;50.256;10.978;2024-01-15T02:48:20;73.45;;;25.75;;
26574;SDS011;67165;50.256;10.978;2024-01-15T02:50:46;70.07;;;26.30;;
26574;SDS011;67165;50.256;10.978;2024-01-15T02:53:12;67.70;;;25.52;;
26574;SDS011;67165;50.256;10.978;2024-01-15T02:55:38;78.18;;;26.45;;
26574;SDS011;67165;50.256;10.978;2024-01-15T02:58:04;70.28;;;25.90;;
26574;SDS011;67165;50.256;10.978;2024-01-15T03:00:29;78.03;;;26.23;;
26574;SDS011;67165;50.256;10.978;2024-01-15T03:02:55;71.85;;;24.85;;
26574;SDS011;67165;50.256;10.978;2024-01-15T03:05:21;70.45;;;25.55;;
26574;SDS011;67165;50.256;10.978;2024-01-15T03:07:47;67.47;;;25.05;;
26574;SDS011;67165;50.256;10.978;2024-01-15T03:10:13;70.72;;;25.30;;
26574;SDS011;67165;50.256;10.978;2024-01-15T03:12:39;70.32;;;26.17;;
26574;SDS011;67165;50.256;10.978;2024-01-15T03:15:04;68.75;;;24.58;;
26574;SDS011;67165;50.256;10.978;2024-01-15T03:17:30;73.65;;;25.58;;
26574;SDS011;67165;50.256;10.978;2024-01-15T03:19:56;74.43;;;24.88;;
26574;SDS011;67165;50.256;10.978;2024-01-15T03:22:22;71.32;;;25.45;;
26574;SDS011;67165;50.256;10.978;2024-01-15T03:24:48;66.60;;;25.33;;
26574;SDS011;67165;50.256;10.978;2024-01-15T03:27:13;68.28;;;24.58;;
26574;SDS011;67165;50.256;10.978;2024-01-15T03:29:39;68.07;;;24.08;;
26574;SDS011;67165;50.256;10.978;2024-01-15T03:32:06;63.05;;;23.23;;
26574;SDS011;67165;50.256;10.978;2024-01-15T03:34:31;62.88;;;23.83;;
26574;SDS011;67165;50.256;10.978;2024-01-15T03:36:57;67.88;;;24.35;;
26574;SDS011;67165;50.256;10.978;2024-01-15T03:39:24;61.67;;;23.50;;
26574;SDS011;67165;50.256;10.978;2024-01-15T03:41:50;61.67;;;22.52;;
26574;SDS011;67165;50.256;10.978;2024-01-15T03:44:16;62.97;;;24.33;;
26574;SDS011;67165;50.256;10.978;2024-01-15T03:46:41;57.25;;;21.98;;
26574;SDS011;67165;50.256;10.978;2024-01-15T03:49:07;58.88;;;22.05;;
26574;SDS011;67165;50.256;10.978;2024-01-15T03:51:33;62.20;;;22.13;;
26574;SDS011;67165;50.256;10.978;2024-01-15T03:53:58;60.40;;;22.58;;
26574;SDS011;67165;50.256;10.978;2024-01-15T03:56:24;63.45;;;22.75;;
26574;SDS011;67165;50.256;10.978;2024-01-15T03:58:50;62.55;;;22.35;;
26574;SDS011;67165;50.256;10.978;2024-01-15T04:01:16;59.25;;;22.30;;
26574;SDS011;67165;50.256;10.978;2024-01-15T04:03:41;60.90;;;21.90;;
26574;SDS011;67165;50.256;10.978;2024-01-15T04:06:07;52.60;;;20.85;;
26574;SDS011;67165;50.256;10.978;2024-01-15T04:08:33;56.42;;;20.40;;
26574;SDS011;67165;50.256;10.978;2024-01-15T04:10:59;57.95;;;21.92;;
26574;SDS011;67165;50.256;10.978;2024-01-15T04:13:24;54.67;;;20.60;;
26574;SDS011;67165;50.256;10.978;2024-01-15T04:15:50;55.35;;;21.02;;
26574;SDS011;67165;50.256;10.978;2024-01-15T04:18:16;50.17;;;20.45;;
26574;SDS011;67165;50.256;10.978;2024-01-15T04:20:44;59.63;;;21.30;;
26574;SDS011;67165;50.256;10.978;2024-01-15T04:23:10;56.78;;;21.05;;
26574;SDS011;67165;50.256;10.978;2024-01-15T04:25:36;53.15;;;21.20;;
26574;SDS011;67165;50.256;10.978;2024-01-15T04:28:01;55.97;;;20.85;;
26574;SDS011;67165;50.256;10.978;2024-01-15T04:30:27;51.65;;;20.85;;
26574;SDS011;67165;50.256;10.978;2024-01-15T04:32:53;54.10;;;20.77;;
26574;SDS011;67165;50.256;10.978;2024-01-15T04:35:19;55.92;;;21.02;;
26574;SDS011;67165;50.256;10.978;2024-01-15T04:37:45;53.90;;;21.15;;
26574;SDS011;67165;50.256;10.978;2024-01-15T04:40:10;56.58;;;20.92;;
26574;SDS011;67165;50.256;10.978;2024-01-15T04:42:36;52.15;;;20.80;;
26574;SDS011;67165;50.256;10.978;2024-01-15T04:45:02;52.58;;;20.10;;
26574;SDS011;67165;50.256;10.978;2024-01-15T04:47:28;51.70;;;20.40;;
26574;SDS011;67165;50.256;10.978;2024-01-15T04:49:54;48.30;;;20.13;;
26574;SDS011;67165;50.256;10.978;2024-01-15T04:52:20;52.72;;;20.42;;
26574;SDS011;67165;50.256;10.978;2024-01-15T04:54:45;53.88;;;21.38;;
26574;SDS011;67165;50.256;10.978;2024-01-15T04:57:11;55.08;;;21.05;;
26574;SDS011;67165;50.256;10.978;2024-01-15T04:59:37;59.17;;;20.55;;
26574;SDS011;67165;50.256;10.978;2024-01-15T05:02:03;51.75;;;20.45;;
26574;SDS011;67165;50.256;10.978;2024-01-15T05:04:28;55.20;;;21.48;;
26574;SDS011;67165;50.256;10.978;2024-01-15T05:06:54;53.28;;;20.15;;
26574;SDS011;67165;50.256;10.978;2024-01-15T05:09:20;47.58;;;19.77;;
26574;SDS011;67165;50.256;10.978;2024-01-15T05:11:46;49.60;;;20.00;;
26574;SDS011;67165;50.256;10.978;2024-01-15T05:14:12;51.60;;;19.83;;
26574;SDS011;67165;50.256;10.978;2024-01-15T05:16:39;49.38;;;19.83;;
26574;SDS011;67165;50.256;10.978;2024-01-15T05:19:11;48.95;;;19.50;;
26574;SDS011;67165;50.256;10.978;2024-01-15T05:21:37;48.65;;;19.50;;
26574;SDS011;67165;50.256;10.978;2024-01-15T05:24:02;51.33;;;20.35;;
26574;SDS011;67165;50.256;10.978;2024-01-15T05:26:28;47.65;;;20.27;;
26574;SDS011;67165;50.256;10.978;2024-01-15T05:28:54;47.78;;;20.27;;
26574;SDS011;67165;50.256;10.978;2024-01-15T05:31:20;48.67;;;19.15;;
26574;SDS011;67165;50.256;10.978;2024-01-15T05:33:45;50.72;;;19.92;;
26574;SDS011;67165;50.256;10.978;2024-01-15T05:36:11;51.17;;;20.83;;
26574;SDS011;67165;50.256;10.978;2024-01-15T05:38:37;47.00;;;19.75;;
26574;SDS011;67165;50.256;10.978;2024-01-15T05:41:02;49.95;;;19.33;;
26574;SDS011;67165;50.256;10.978;2024-01-15T05:43:28;48.83;;;18.95;;
26574;SDS011;67165;50.256;10.978;2024-01-15T05:45:54;45.05;;;19.20;;
26574;SDS011;67165;50.256;10.978;2024-01-15T05:48:20;45.42;;;19.45;;
26574;SDS011;67165;50.256;10.978;2024-01-15T05:50:45;47.10;;;18.60;;
26574;SDS011;67165;50.256;10.978;2024-01-15T05:53:11;47.20;;;20.38;;
26574;SDS011;67165;50.256;10.978;2024-01-15T05:55:37;45.63;;;19.45;;
26574;SDS011;67165;50.256;10.978;2024-01-15T05:58:05;44.58;;;18.50;;
26574;SDS011;67165;50.256;10.978;2024-01-15T06:00:31;47.67;;;18.77;;
26574;SDS011;67165;50.256;10.978;2024-01-15T06:02:59;48.33;;;19.33;;
26574;SDS011;67165;50.256;10.978;2024-01-15T06:05:25;42.92;;;17.65;;
26574;SDS011;67165;50.256;10.978;2024-01-15T06:07:51;41.53;;;17.48;;
26574;SDS011;67165;50.256;10.978;2024-01-15T06:10:16;44.13;;;17.40;;
26574;SDS011;67165;50.256;10.978;2024-01-15T06:12:43;40.00;;;17.67;;
26574;SDS011;67165;50.256;10.978;2024-01-15T06:15:09;41.85;;;18.02;;
26574;SDS011;67165;50.256;10.978;2024-01-15T06:17:35;43.33;;;17.67;;
26574;SDS011;67165;50.256;10.978;2024-01-15T06:20:02;44.47;;;18.25;;
26574;SDS011;67165;50.256;10.978;2024-01-15T06:22:28;45.65;;;18.75;;
26574;SDS011;67165;50.256;10.978;2024-01-15T06:24:54;41.33;;;17.25;;
26574;SDS011;67165;50.256;10.978;2024-01-15T06:27:20;44.33;;;18.83;;
26574;SDS011;67165;50.256;10.978;2024-01-15T06:29:46;44.03;;;18.60;;
26574;SDS011;67165;50.256;10.978;2024-01-15T06:32:12;46.60;;;18.73;;
26574;SDS011;67165;50.256;10.978;2024-01-15T06:34:38;42.22;;;18.73;;
26574;SDS011;67165;50.256;10.978;2024-01-15T06:37:04;48.72;;;19.05;;
26574;SDS011;67165;50.256;10.978;2024-01-15T06:39:30;41.15;;;17.27;;
26574;SDS011;67165;50.256;10.978;2024-01-15T06:41:56;40.45;;;17.60;;
26574;SDS011;67165;50.256;10.978;2024-01-15T06:44:22;42.33;;;16.63;;
26574;SDS011;67165;50.256;10.978;2024-01-15T06:46:48;46.28;;;18.70;;
26574;SDS011;67165;50.256;10.978;2024-01-15T06:49:13;39.75;;;17.55;;
26574;SDS011;67165;50.256;10.978;2024-01-15T06:51:39;39.15;;;17.50;;
26574;SDS011;67165;50.256;10.978;2024-01-15T06:54:05;43.30;;;17.85;;
26574;SDS011;67165;50.256;10.978;2024-01-15T06:56:31;39.58;;;17.02;;
26574;SDS011;67165;50.256;10.978;2024-01-15T06:58:57;40.75;;;16.95;;
26574;SDS011;67165;50.256;10.978;2024-01-15T07:01:23;42.25;;;18.25;;
26574;SDS011;67165;50.256;10.978;2024-01-15T07:03:49;40.72;;;17.15;;
26574;SDS011;67165;50.256;10.978;2024-01-15T07:06:15;42.95;;;17.45;;
26574;SDS011;67165;50.256;10.978;2024-01-15T07:08:41;40.17;;;16.67;;
26574;SDS011;67165;50.256;10.978;2024-01-15T07:11:07;41.38;;;16.27;;
26574;SDS011;67165;50.256;10.978;2024-01-15T07:13:34;40.10;;;16.50;;
26574;SDS011;67165;50.256;10.978;2024-01-15T07:16:01;40.03;;;16.00;;
26574;SDS011;67165;50.256;10.978;2024-01-15T07:18:27;40.55;;;16.13;;
26574;SDS011;67165;50.256;10.978;2024-01-15T07:20:53;42.17;;;17.40;;
26574;SDS011;67165;50.256;10.978;2024-01-15T07:23:19;41.42;;;16.70;;
26574;SDS011;67165;50.256;10.978;2024-01-15T07:25:45;43.97;;;18.02;;
26574;SDS011;67165;50.256;10.978;2024-01-15T07:28:10;46.08;;;18.25;;
26574;SDS011;67165;50.256;10.978;2024-01-15T07:30:36;41.92;;;17.25;;
26574;SDS011;67165;50.256;10.978;2024-01-15T07:33:04;43.08;;;17.42;;
26574;SDS011;67165;50.256;10.978;2024-01-15T07:35:30;40.65;;;16.95;;
26574;SDS011;67165;50.256;10.978;2024-01-15T07:37:56;40.13;;;16.52;;
26574;SDS011;67165;50.256;10.978;2024-01-15T07:40:22;46.17;;;16.60;;
26574;SDS011;67165;50.256;10.978;2024-01-15T07:42:49;52.83;;;18.08;;
26574;SDS011;67165;50.256;10.978;2024-01-15T07:45:15;45.03;;;17.33;;
26574;SDS011;67165;50.256;10.978;2024-01-15T07:47:41;39.15;;;16.20;;
26574;SDS011;67165;50.256;10.978;2024-01-15T07:50:08;39.28;;;17.17;;
26574;SDS011;67165;50.256;10.978;2024-01-15T07:52:34;39.10;;;16.27;;
26574;SDS011;67165;50.256;10.978;2024-01-15T07:54:59;36.50;;;15.40;;
26574;SDS011;67165;50.256;10.978;2024-01-15T07:57:25;37.00;;;15.27;;
26574;SDS011;67165;50.256;10.978;2024-01-15T07:59:51;40.00;;;16.25;;
26574;SDS011;67165;50.256;10.978;2024-01-15T08:02:17;40.97;;;16.33;;
26574;SDS011;67165;50.256;10.978;2024-01-15T08:04:43;35.90;;;14.98;;
26574;SDS011;67165;50.256;10.978;2024-01-15T08:07:09;37.33;;;15.07;;
26574;SDS011;67165;50.256;10.978;2024-01-15T08:09:35;31.85;;;14.60;;
26574;SDS011;67165;50.256;10.978;2024-01-15T08:12:00;34.13;;;14.63;;
26574;SDS011;67165;50.256;10.978;2024-01-15T08:14:26;33.83;;;15.05;;
26574;SDS011;67165;50.256;10.978;2024-01-15T08:16:52;33.67;;;14.43;;
26574;SDS011;67165;50.256;10.978;2024-01-15T08:19:18;35.22;;;15.00;;
26574;SDS011;67165;50.256;10.978;2024-01-15T08:21:45;35.53;;;15.15;;
26574;SDS011;67165;50.256;10.978;2024-01-15T08:24:11;35.72;;;15.02;;
26574;SDS011;67165;50.256;10.978;2024-01-15T08:26:36;32.75;;;14.50;;
26574;SDS011;67165;50.256;10.978;2024-01-15T08:29:02;38.33;;;15.32;;
26574;SDS011;67165;50.256;10.978;2024-01-15T08:31:28;36.58;;;16.48;;
26574;SDS011;67165;50.256;10.978;2024-01-15T08:33:54;38.38;;;15.77;;
26574;SDS011;67165;50.256;10.978;2024-01-15T08:36:20;35.22;;;15.77;;
26574;SDS011;67165;50.256;10.978;2024-01-15T08:38:46;35.53;;;15.15;;
26574;SDS011;67165;50.256;10.978;2024-01-15T08:41:13;36.65;;;16.45;;
26574;SDS011;67165;50.256;10.978;2024-01-15T08:43:38;36.25;;;15.55;;
26574;SDS011;67165;50.256;10.978;2024-01-15T08:46:04;31.42;;;14.55;;
26574;SDS011;67165;50.256;10.978;2024-01-15T08:48:30;35.55;;;15.10;;
26574;SDS011;67165;50.256;10.978;2024-01-15T08:50:56;30.45;;;14.68;;
26574;SDS011;67165;50.256;10.978;2024-01-15T08:53:22;33.47;;;14.35;;
26574;SDS011;67165;50.256;10.978;2024-01-15T08:55:48;32.40;;;14.23;;
26574;SDS011;67165;50.256;10.978;2024-01-15T08:58:14;34.85;;;14.70;;
26574;SDS011;67165;50.256;10.978;2024-01-15T09:00:40;31.77;;;13.30;;
26574;SDS011;67165;50.256;10.978;2024-01-15T09:03:06;32.97;;;14.15;;
26574;SDS011;67165;50.256;10.978;2024-01-15T09:05:33;31.63;;;13.10;;
26574;SDS011;67165;50.256;10.978;2024-01-15T09:07:59;28.55;;;12.70;;
26574;SDS011;67165;50.256;10.978;2024-01-15T09:10:25;31.88;;;13.80;;
26574;SDS011;67165;50.256;10.978;2024-01-15T09:12:50;31.08;;;13.02;;
26574;SDS011;67165;50.256;10.978;2024-01-15T09:15:16;30.80;;;13.50;;
26574;SDS011;67165;50.256;10.978;2024-01-15T09:17:42;29.10;;;13.95;;
26574;SDS011;67165;50.256;10.978;2024-01-15T09:20:08;31.08;;;12.35;;
26574;SDS011;67165;50.256;10.978;2024-01-15T09:22:38;31.70;;;13.10;;
26574;SDS011;67165;50.256;10.978;2024-01-15T09:25:07;26.92;;;12.50;;
26574;SDS011;67165;50.256;10.978;2024-01-15T09:27:36;28.17;;;12.65;;
26574;SDS011;67165;50.256;10.978;2024-01-15T09:30:03;27.98;;;12.70;;
26574;SDS011;67165;50.256;10.978;2024-01-15T09:32:30;26.98;;;12.73;;
26574;SDS011;67165;50.256;10.978;2024-01-15T09:34:55;30.92;;;13.80;;
26574;SDS011;67165;50.256;10.978;2024-01-15T09:37:21;27.60;;;13.02;;
26574;SDS011;67165;50.256;10.978;2024-01-15T09:39:48;29.25;;;12.40;;
26574;SDS011;67165;50.256;10.978;2024-01-15T09:42:15;27.92;;;12.75;;
26574;SDS011;67165;50.256;10.978;2024-01-15T09:44:41;33.45;;;13.65;;
26574;SDS011;67165;50.256;10.978;2024-01-15T09:47:07;31.67;;;13.18;;
26574;SDS011;67165;50.256;10.978;2024-01-15T09:49:34;27.52;;;13.00;;
26574;SDS011;67165;50.256;10.978;2024-01-15T09:52:00;29.38;;;12.85;;
26574;SDS011;67165;50.256;10.978;2024-01-15T09:54:27;25.70;;;12.05;;
26574;SDS011;67165;50.256;10.978;2024-01-15T09:56:54;28.67;;;13.60;;
26574;SDS011;67165;50.256;10.978;2024-01-15T09:59:20;28.92;;;13.23;;
26574;SDS011;67165;50.256;10.978;2024-01-15T10:01:48;30.25;;;13.52;;
26574;SDS011;67165;50.256;10.978;2024-01-15T10:04:16;33.25;;;15.13;;
26574;SDS011;67165;50.256;10.978;2024-01-15T10:06:43;27.67;;;13.57;;
26574;SDS011;67165;50.256;10.978;2024-01-15T10:09:12;30.20;;;13.13;;
26574;SDS011;67165;50.256;10.978;2024-01-15T10:11:44;23.98;;;11.95;;
26574;SDS011;67165;50.256;10.978;2024-01-15T10:14:10;29.42;;;12.75;;
26574;SDS011;67165;50.256;10.978;2024-01-15T10:16:39;28.70;;;12.60;;
26574;SDS011;67165;50.256;10.978;2024-01-15T10:19:06;30.38;;;12.77;;
26574;SDS011;67165;50.256;10.978;2024-01-15T10:21:32;28.50;;;13.20;;
26574;SDS011;67165;50.256;10.978;2024-01-15T10:24:01;27.45;;;12.02;;
26574;SDS011;67165;50.256;10.978;2024-01-15T10:26:28;26.67;;;12.10;;
26574;SDS011;67165;50.256;10.978;2024-01-15T10:28:54;29.88;;;12.32;;
26574;SDS011;67165;50.256;10.978;2024-01-15T10:31:20;24.35;;;11.60;;
26574;SDS011;67165;50.256;10.978;2024-01-15T10:33:49;28.27;;;12.00;;
26574;SDS011;67165;50.256;10.978;2024-01-15T10:36:16;26.23;;;11.88;;
26574;SDS011;67165;50.256;10.978;2024-01-15T10:38:46;24.65;;;11.70;;
26574;SDS011;67165;50.256;10.978;2024-01-15T10:41:12;27.98;;;12.73;;
26574;SDS011;67165;50.256;10.978;2024-01-15T10:43:39;29.45;;;12.55;;
26574;SDS011;67165;50.256;10.978;2024-01-15T10:46:07;28.40;;;12.25;;
26574;SDS011;67165;50.256;10.978;2024-01-15T10:48:33;23.40;;;11.77;;
26574;SDS011;67165;50.256;10.978;2024-01-15T10:51:01;23.52;;;10.82;;
26574;SDS011;67165;50.256;10.978;2024-01-15T10:53:35;25.70;;;11.38;;
26574;SDS011;67165;50.256;10.978;2024-01-15T10:56:05;27.20;;;12.07;;
26574;SDS011;67165;50.256;10.978;2024-01-15T10:58:33;27.40;;;12.45;;
26574;SDS011;67165;50.256;10.978;2024-01-15T11:01:03;29.55;;;13.00;;
26574;SDS011;67165;50.256;10.978;2024-01-15T11:03:30;24.63;;;11.35;;
26574;SDS011;67165;50.256;10.978;2024-01-15T11:05:55;27.90;;;12.65;;
26574;SDS011;67165;50.256;10.978;2024-01-15T11:08:21;28.60;;;12.68;;
26574;SDS011;67165;50.256;10.978;2024-01-15T11:10:51;26.85;;;12.05;;
26574;SDS011;67165;50.256;10.978;2024-01-15T11:15:57;28.33;;;12.30;;
26574;SDS011;67165;50.256;10.978;2024-01-15T11:18:29;26.98;;;12.57;;
26574;SDS011;67165;50.256;10.978;2024-01-15T11:26:33;27.13;;;13.10;;
26574;SDS011;67165;50.256;10.978;2024-01-15T11:29:05;29.98;;;13.75;;
26574;SDS011;67165;50.256;10.978;2024-01-15T11:34:04;31.08;;;13.52;;
26574;SDS011;67165;50.256;10.978;2024-01-15T11:41:56;27.15;;;13.18;;
26574;SDS011;67165;50.256;10.978;2024-01-15T11:44:24;29.65;;;14.00;;
26574;SDS011;67165;50.256;10.978;2024-01-15T11:50:05;31.77;;;13.80;;
26574;SDS011;67165;50.256;10.978;2024-01-15T11:52:24;31.77;;;13.88;;
26574;SDS011;67165;50.256;10.978;2024-01-15T11:57:21;29.65;;;14.05;;
26574;SDS011;67165;50.256;10.978;2024-01-15T11:59:56;29.40;;;14.07;;
26574;SDS011;67165;50.256;10.978;2024-01-15T12:02:22;29.88;;;13.75;;
26574;SDS011;67165;50.256;10.978;2024-01-15T12:04:53;28.92;;;13.65;;
26574;SDS011;67165;50.256;10.978;2024-01-15T12:07:19;28.95;;;13.55;;
26574;SDS011;67165;50.256;10.978;2024-01-15T12:09:45;27.00;;;13.38;;
26574;SDS011;67165;50.256;10.978;2024-01-15T12:12:13;34.28;;;13.95;;
26574;SDS011;67165;50.256;10.978;2024-01-15T12:14:51;27.83;;;14.30;;
26574;SDS011;67165;50.256;10.978;2024-01-15T12:17:17;28.73;;;13.98;;
26574;SDS011;67165;50.256;10.978;2024-01-15T12:19:43;29.75;;;13.80;;
26574;SDS011;67165;50.256;10.978;2024-01-15T12:22:09;33.17;;;15.57;;
26574;SDS011;67165;50.256;10.978;2024-01-15T12:24:35;30.88;;;14.57;;
26574;SDS011;67165;50.256;10.978;2024-01-15T12:27:01;34.15;;;14.35;;
26574;SDS011;67165;50.256;10.978;2024-01-15T12:29:27;29.08;;;13.82;;
26574;SDS011;67165;50.256;10.978;2024-01-15T12:31:53;30.08;;;13.95;;
26574;SDS011;67165;50.256;10.978;2024-01-15T12:34:19;27.83;;;12.93;;
26574;SDS011;67165;50.256;10.978;2024-01-15T12:36:48;28.98;;;13.80;;
26574;SDS011;67165;50.256;10.978;2024-01-15T12:39:13;26.75;;;13.05;;
26574;SDS011;67165;50.256;10.978;2024-01-15T12:41:40;26.10;;;13.13;;
26574;SDS011;67165;50.256;10.978;2024-01-15T12:44:06;27.05;;;12.55;;
26574;SDS011;67165;50.256;10.978;2024-01-15T12:46:33;27.33;;;13.30;;
26574;SDS011;67165;50.256;10.978;2024-01-15T12:48:58;27.38;;;12.98;;
26574;SDS011;67165;50.256;10.978;2024-01-15T12:51:24;25.83;;;12.88;;
26574;SDS011;67165;50.256;10.978;2024-01-15T12:53:51;29.10;;;13.38;;
26574;SDS011;67165;50.256;10.978;2024-01-15T12:56:17;28.50;;;12.38;;
26574;SDS011;67165;50.256;10.978;2024-01-15T12:58:42;28.95;;;13.60;;
26574;SDS011;67165;50.256;10.978;2024-01-15T13:01:08;29.92;;;12.65;;
26574;SDS011;67165;50.256;10.978;2024-01-15T13:03:35;25.70;;;12.75;;
26574;SDS011;67165;50.256;10.978;2024-01-15T13:06:01;27.77;;;12.90;;
26574;SDS011;67165;50.256;10.978;2024-01-15T13:08:26;25.98;;;12.85;;
26574;SDS011;67165;50.256;10.978;2024-01-15T13:10:54;26.27;;;13.15;;
26574;SDS011;67165;50.256;10.978;2024-01-15T13:13:22;28.17;;;11.98;;
26574;SDS011;67165;50.256;10.978;2024-01-15T13:15:48;26.95;;;12.40;;
26574;SDS011;67165;50.256;10.978;2024-01-15T13:18:13;24.27;;;12.43;;
26574;SDS011;67165;50.256;10.978;2024-01-15T13:20:39;26.95;;;12.27;;
26574;SDS011;67165;50.256;10.978;2024-01-15T13:23:05;34.08;;;14.20;;
26574;SDS011;67165;50.256;10.978;2024-01-15T13:25:31;26.08;;;12.93;;
26574;SDS011;67165;50.256;10.978;2024-01-15T13:27:58;35.88;;;16.67;;
26574;SDS011;67165;50.256;10.978;2024-01-15T13:30:24;35.75;;;16.80;;
26574;SDS011;67165;50.256;10.978;2024-01-15T13:32:50;28.45;;;13.98;;
26574;SDS011;67165;50.256;10.978;2024-01-15T13:35:16;26.52;;;12.43;;
26574;SDS011;67165;50.256;10.978;2024-01-15T13:37:42;23.77;;;12.80;;
26574;SDS011;67165;50.256;10.978;2024-01-15T13:40:08;24.33;;;12.25;;
26574;SDS011;67165;50.256;10.978;2024-01-15T13:42:35;24.75;;;12.40;;
26574;SDS011;67165;50.256;10.978;2024-01-15T13:45:04;27.63;;;13.65;;
26574;SDS011;67165;50.256;10.978;2024-01-15T13:47:31;27.83;;;12.93;;
26574;SDS011;67165;50.256;10.978;2024-01-15T13:49:57;31.02;;;15.52;;
26574;SDS011;67165;50.256;10.978;2024-01-15T13:52:24;29.35;;;13.93;;
26574;SDS011;67165;50.256;10.978;2024-01-15T13:54:49;33.45;;;16.98;;
26574;SDS011;67165;50.256;10.978;2024-01-15T13:57:16;31.92;;;16.27;;
26574;SDS011;67165;50.256;10.978;2024-01-15T13:59:42;32.90;;;15.40;;
26574;SDS011;67165;50.256;10.978;2024-01-15T14:02:08;32.05;;;16.95;;
26574;SDS011;67165;50.256;10.978;2024-01-15T14:04:34;36.75;;;18.67;;
26574;SDS011;67165;50.256;10.978;2024-01-15T14:07:00;34.90;;;17.08;;
26574;SDS011;67165;50.256;10.978;2024-01-15T14:09:26;37.95;;;16.98;;
26574;SDS011;67165;50.256;10.978;2024-01-15T14:11:52;31.98;;;15.88;;
26574;SDS011;67165;50.256;10.978;2024-01-15T14:14:17;36.60;;;18.63;;
26574;SDS011;67165;50.256;10.978;2024-01-15T14:16:43;45.00;;;22.20;;
26574;SDS011;67165;50.256;10.978;2024-01-15T14:19:09;36.78;;;18.08;;
26574;SDS011;67165;50.256;10.978;2024-01-15T14:21:35;40.50;;;20.70;;
26574;SDS011;67165;50.256;10.978;2024-01-15T14:24:01;38.38;;;17.65;;